createdAt,value
2018-03-07T00:01:40.496Z,6.30
2018-03-07T00:04:08.102Z,6.20
2018-03-07T00:06:35.746Z,6.30
2018-03-07T00:09:03.451Z,6.30
2018-03-07T00:11:31.118Z,6.30
2018-03-07T00:13:58.896Z,6.40
2018-03-07T00:16:26.423Z,6.40
2018-03-07T00:18:53.936Z,6.30
2018-03-07T00:21:21.434Z,6.30
2018-03-07T00:23:49.766Z,6.20
2018-03-07T00:26:17.281Z,6.20
2018-03-07T00:28:44.802Z,6.30
2018-03-07T00:31:12.351Z,6.40
2018-03-07T00:33:40.187Z,6.40
2018-03-07T00:36:07.857Z,6.40
2018-03-07T00:38:35.412Z,6.40
2018-03-07T00:41:03.242Z,6.40
2018-03-07T00:43:31.144Z,6.50
2018-03-07T00:45:58.878Z,6.40
2018-03-07T00:48:27.971Z,6.20
2018-03-07T00:50:56.237Z,6.00
2018-03-07T00:53:23.770Z,6.00
2018-03-07T00:55:51.253Z,5.90
2018-03-07T00:58:19.533Z,5.70
2018-03-07T01:00:47.029Z,5.70
2018-03-07T01:03:14.545Z,5.50
2018-03-07T01:05:42.094Z,5.40
2018-03-07T01:08:09.919Z,5.30
2018-03-07T01:10:37.595Z,5.20
2018-03-07T01:13:05.481Z,5.10
2018-03-07T01:15:33.418Z,4.90
2018-03-07T01:18:01.998Z,4.90
2018-03-07T01:20:30.074Z,4.70
2018-03-07T01:22:57.607Z,4.70
2018-03-07T01:25:25.861Z,4.70
2018-03-07T01:27:53.365Z,4.60
2018-03-07T01:30:20.858Z,4.60
2018-03-07T01:32:48.389Z,4.50
2018-03-07T01:35:15.901Z,4.50
2018-03-07T01:37:44.013Z,4.30
2018-03-07T01:40:11.563Z,4.20
2018-03-07T01:42:39.091Z,4.10
2018-03-07T01:45:06.710Z,4.10
2018-03-07T01:47:34.471Z,4.10
2018-03-07T01:50:02.365Z,4.10
2018-03-07T01:52:30.329Z,4.10
2018-03-07T01:54:57.849Z,4.10
2018-03-07T01:57:25.413Z,4.00
2018-03-07T01:59:52.910Z,4.10
2018-03-07T02:02:20.480Z,4.00
2018-03-07T02:04:47.994Z,4.10
2018-03-07T02:07:15.540Z,4.10
2018-03-07T02:09:43.120Z,4.20
2018-03-07T02:12:10.886Z,4.20
2018-03-07T02:14:39.376Z,4.40
2018-03-07T02:17:08.214Z,4.40
2018-03-07T02:19:36.805Z,4.50
2018-03-07T02:22:04.823Z,4.40
2018-03-07T02:24:33.508Z,4.50
2018-03-07T02:27:01.885Z,4.50
2018-03-07T02:29:31.464Z,4.50
2018-03-07T02:31:59.360Z,4.50
2018-03-07T02:34:26.877Z,4.40
2018-03-07T02:36:55.145Z,4.20
2018-03-07T02:39:23.405Z,4.10
2018-03-07T02:41:50.981Z,4.10
2018-03-07T02:44:18.474Z,3.90
2018-03-07T02:46:45.990Z,3.80
2018-03-07T02:49:13.634Z,3.70
2018-03-07T02:51:41.606Z,3.60
2018-03-07T02:54:09.389Z,3.40
2018-03-07T02:56:38.063Z,3.10
2018-03-07T02:59:05.721Z,3.10
2018-03-07T03:01:33.967Z,2.90
2018-03-07T03:04:01.911Z,2.70
2018-03-07T03:06:32.049Z,2.40
2018-03-07T03:09:01.215Z,2.20
2018-03-07T03:11:29.127Z,2.20
2018-03-07T03:13:57.472Z,2.30
2018-03-07T03:16:26.485Z,2.20
2018-03-07T03:18:53.983Z,2.20
2018-03-07T03:21:21.470Z,2.10
2018-03-07T03:23:48.980Z,2.10
2018-03-07T03:26:16.465Z,2.00
2018-03-07T03:28:44.081Z,1.90
2018-03-07T03:31:11.680Z,1.80
2018-03-07T03:33:39.473Z,1.70
2018-03-07T03:36:07.278Z,1.70
2018-03-07T03:38:35.914Z,1.70
2018-03-07T03:41:03.951Z,1.70
2018-03-07T03:43:32.308Z,1.80
2018-03-07T03:46:01.202Z,1.80
2018-03-07T03:48:31.429Z,1.80
2018-03-07T03:51:00.727Z,1.70
2018-03-07T03:53:30.054Z,1.70
2018-03-07T03:55:58.510Z,1.50
2018-03-07T03:58:26.190Z,1.50
2018-03-07T04:00:53.740Z,1.40
2018-03-07T04:03:21.227Z,1.20
2018-03-07T04:05:48.771Z,1.40
2018-03-07T04:08:16.307Z,1.60
2018-03-07T04:10:43.926Z,1.80
2018-03-07T04:13:12.302Z,2.30
2018-03-07T04:15:39.981Z,2.30
2018-03-07T04:18:07.988Z,2.30
2018-03-07T04:20:35.864Z,2.30
2018-03-07T04:23:04.026Z,2.30
2018-03-07T04:25:32.006Z,2.20
2018-03-07T04:28:01.551Z,2.40
2018-03-07T04:30:29.187Z,2.40
2018-03-07T04:32:56.723Z,2.50
2018-03-07T04:35:24.278Z,2.70
2018-03-07T04:37:51.770Z,2.80
2018-03-07T04:40:19.308Z,2.80
2018-03-07T04:42:47.074Z,2.80
2018-03-07T04:45:14.581Z,2.70
2018-03-07T04:47:42.153Z,2.60
2018-03-07T04:50:11.074Z,2.40
2018-03-07T04:52:38.843Z,2.40
2018-03-07T04:55:06.531Z,2.30
2018-03-07T04:57:34.571Z,2.20
2018-03-07T05:00:02.855Z,2.20
2018-03-07T05:02:32.195Z,2.20
2018-03-07T05:05:01.570Z,2.00
2018-03-07T05:07:29.936Z,2.00
2018-03-07T05:09:58.522Z,1.70
2018-03-07T05:12:26.089Z,1.70
2018-03-07T05:14:53.613Z,1.50
2018-03-07T05:17:22.487Z,1.60
2018-03-07T05:19:49.989Z,1.60
2018-03-07T05:22:17.535Z,1.70
2018-03-07T05:24:45.040Z,1.80
2018-03-07T05:27:12.996Z,1.80
2018-03-07T05:29:40.712Z,1.70
2018-03-07T05:32:08.423Z,1.50
2018-03-07T05:34:36.162Z,1.40
2018-03-07T05:37:04.706Z,1.20
2018-03-07T05:39:32.824Z,1.20
2018-03-07T05:42:02.200Z,1.30
2018-03-07T05:44:30.097Z,1.30
2018-03-07T05:46:57.627Z,1.40
2018-03-07T05:49:25.905Z,1.70
2018-03-07T05:51:54.383Z,1.80
2018-03-07T05:54:22.791Z,1.70
2018-03-07T05:56:50.558Z,1.70
2018-03-07T05:59:18.397Z,1.70
2018-03-07T06:01:46.293Z,1.80
2018-03-07T06:04:14.157Z,1.80
2018-03-07T06:06:41.922Z,1.80
2018-03-07T06:09:10.357Z,2.00
2018-03-07T06:11:39.184Z,2.10
2018-03-07T06:14:06.685Z,2.10
2018-03-07T06:16:34.185Z,2.20
2018-03-07T06:19:02.484Z,2.70
2018-03-07T06:21:29.976Z,2.70
2018-03-07T06:23:57.493Z,2.90
2018-03-07T06:26:25.114Z,3.00
2018-03-07T06:28:52.648Z,3.00
2018-03-07T06:31:20.258Z,3.10
2018-03-07T06:33:48.584Z,3.40
2018-03-07T06:36:16.697Z,3.40
2018-03-07T06:38:45.346Z,4.00
2018-03-07T06:41:13.562Z,3.90
2018-03-07T06:43:41.334Z,4.20
2018-03-07T06:46:08.760Z,4.30
2018-03-07T06:48:36.332Z,4.20
2018-03-07T06:51:03.915Z,4.30
2018-03-07T06:53:32.333Z,4.50
2018-03-07T06:56:00.325Z,4.50
2018-03-07T06:58:28.061Z,4.70
2018-03-07T07:00:56.040Z,4.90
2018-03-07T07:03:24.014Z,5.00
2018-03-07T07:05:53.304Z,5.10
2018-03-07T07:08:22.226Z,5.10
2018-03-07T07:10:50.526Z,5.40
2018-03-07T07:13:19.362Z,5.50
2018-03-07T07:15:47.163Z,5.50
2018-03-07T07:18:15.235Z,5.60
2018-03-07T07:20:42.756Z,5.60
2018-03-07T07:23:10.252Z,5.80
2018-03-07T07:25:37.770Z,5.90
2018-03-07T07:28:05.273Z,6.10
2018-03-07T07:30:33.138Z,6.10
2018-03-07T07:33:00.885Z,6.20
2018-03-07T07:35:28.595Z,6.30
2018-03-07T07:37:56.800Z,6.40
2018-03-07T07:40:25.579Z,6.50
2018-03-07T07:42:53.533Z,6.50
2018-03-07T07:45:22.337Z,6.70
2018-03-07T07:47:50.439Z,6.60
2018-03-07T07:50:17.985Z,6.70
2018-03-07T07:52:46.124Z,6.70
2018-03-07T07:55:13.914Z,6.70
2018-03-07T07:57:43.033Z,6.60
2018-03-07T08:00:10.804Z,6.50
2018-03-07T08:02:38.428Z,6.50
2018-03-07T08:05:05.941Z,6.50
2018-03-07T08:07:33.444Z,6.50
2018-03-07T08:10:01.438Z,6.50
2018-03-07T08:12:29.237Z,6.50
2018-03-07T08:14:56.901Z,6.40
2018-03-07T08:17:25.581Z,6.30
2018-03-07T08:19:54.029Z,6.20
2018-03-07T08:22:21.616Z,6.20
2018-03-07T08:24:49.957Z,5.90
2018-03-07T08:27:17.776Z,5.90
2018-03-07T08:29:45.925Z,5.80
2018-03-07T08:32:14.450Z,5.70
2018-03-07T08:34:42.749Z,5.60
2018-03-07T08:37:10.317Z,5.60
2018-03-07T08:39:37.841Z,5.50
2018-03-07T08:42:05.368Z,5.50
2018-03-07T08:44:32.907Z,5.40
2018-03-07T08:47:00.797Z,5.40
2018-03-07T08:49:28.371Z,5.40
2018-03-07T08:51:56.305Z,5.40
2018-03-07T08:54:25.889Z,5.40
2018-03-07T08:56:53.781Z,5.40
2018-03-07T08:59:21.359Z,5.30
2018-03-07T09:01:49.095Z,5.30
2018-03-07T09:04:16.606Z,5.30
2018-03-07T09:06:44.578Z,5.30
2018-03-07T09:09:12.161Z,5.40
2018-03-07T09:11:41.041Z,5.50
2018-03-07T09:14:09.489Z,5.60
2018-03-07T09:16:37.219Z,5.60
2018-03-07T09:19:07.366Z,5.90
2018-03-07T09:21:34.950Z,5.90
2018-03-07T09:24:02.503Z,6.00
2018-03-07T09:26:30.115Z,6.10
2018-03-07T09:28:58.119Z,6.10
2018-03-07T09:31:26.378Z,6.10
2018-03-07T09:33:54.450Z,6.10
2018-03-07T09:36:23.237Z,6.20
2018-03-07T09:38:50.778Z,6.20
2018-03-07T09:41:18.295Z,6.20
2018-03-07T09:43:46.120Z,6.30
2018-03-07T09:46:14.060Z,6.30
2018-03-07T09:48:42.461Z,6.60
2018-03-07T09:51:10.026Z,6.50
2018-03-07T09:53:37.536Z,6.90
2018-03-07T09:56:05.070Z,7.20
2018-03-07T09:58:32.621Z,7.50
2018-03-07T10:01:00.364Z,7.80
2018-03-07T10:03:28.245Z,8.10
2018-03-07T10:05:56.088Z,8.80
2018-03-07T10:08:23.769Z,9.40
2018-03-07T10:10:51.845Z,10.30
2018-03-07T10:13:19.392Z,10.10
2018-03-07T10:15:47.513Z,10.50
2018-03-07T10:18:15.185Z,10.90
2018-03-07T10:20:42.687Z,10.30
2018-03-07T10:23:10.261Z,10.30
2018-03-07T10:25:38.290Z,9.90
2018-03-07T10:28:05.792Z,9.70
2018-03-07T10:30:33.280Z,9.30
2018-03-07T10:33:00.958Z,9.00
2018-03-07T10:35:28.538Z,8.80
2018-03-07T10:37:56.318Z,8.90
2018-03-07T10:40:24.145Z,9.10
2018-03-07T10:42:53.911Z,9.10
2018-03-07T10:45:21.466Z,9.10
2018-03-07T10:47:48.970Z,9.20
2018-03-07T10:50:16.592Z,9.00
2018-03-07T10:52:44.102Z,9.00
2018-03-07T10:55:12.350Z,8.60
2018-03-07T10:57:39.852Z,8.60
2018-03-07T11:00:08.134Z,8.60
2018-03-07T11:02:36.411Z,8.70
2018-03-07T11:05:04.656Z,9.20
2018-03-07T11:07:32.205Z,9.10
2018-03-07T11:09:59.837Z,9.80
2018-03-07T11:12:27.370Z,9.80
2018-03-07T11:14:55.652Z,9.80
2018-03-07T11:17:23.209Z,9.80
2018-03-07T11:19:50.722Z,9.50
2018-03-07T11:22:18.206Z,9.60
2018-03-07T11:24:45.722Z,9.40
2018-03-07T11:27:13.211Z,9.00
2018-03-07T11:29:40.704Z,8.70
2018-03-07T11:32:08.974Z,8.60
2018-03-07T11:34:37.449Z,8.60
2018-03-07T11:37:05.729Z,8.50
2018-03-07T11:39:33.511Z,8.50
2018-03-07T11:42:01.043Z,8.50
2018-03-07T11:44:28.692Z,8.70
2018-03-07T11:46:56.214Z,8.90
2018-03-07T11:49:25.070Z,8.90
2018-03-07T11:51:52.802Z,9.00
2018-03-07T11:54:21.515Z,8.70
2018-03-07T11:56:49.767Z,8.80
2018-03-07T11:59:17.264Z,8.70
2018-03-07T12:01:45.525Z,9.10
2018-03-07T12:04:13.801Z,9.10
2018-03-07T12:06:41.300Z,9.10
2018-03-07T12:09:08.853Z,9.10
2018-03-07T12:11:36.384Z,9.20
2018-03-07T12:14:04.102Z,9.20
2018-03-07T12:16:31.605Z,9.20
2018-03-07T12:19:00.150Z,9.20
2018-03-07T12:21:28.541Z,9.10
2018-03-07T12:23:56.516Z,9.10
2018-03-07T12:26:24.131Z,8.70
2018-03-07T12:28:51.730Z,8.60
2018-03-07T12:31:19.215Z,8.60
2018-03-07T12:33:47.484Z,8.70
2018-03-07T12:36:15.087Z,8.70
2018-03-07T12:38:42.597Z,8.70
2018-03-07T12:41:10.094Z,8.70
2018-03-07T12:43:37.631Z,8.70
2018-03-07T12:46:05.907Z,8.70
2018-03-07T12:48:34.163Z,8.70
2018-03-07T12:51:02.439Z,8.40
2018-03-07T12:53:29.956Z,8.40
2018-03-07T12:55:57.454Z,8.40
2018-03-07T12:58:24.965Z,8.30
2018-03-07T13:00:52.497Z,8.20
2018-03-07T13:03:21.074Z,8.30
2018-03-07T13:05:48.748Z,8.20
2018-03-07T13:08:17.474Z,8.50
2018-03-07T13:10:45.128Z,8.50
2018-03-07T13:13:12.667Z,8.60
2018-03-07T13:15:40.401Z,9.00
2018-03-07T13:18:07.908Z,9.00
2018-03-07T13:20:35.409Z,9.00
2018-03-07T13:23:02.917Z,9.00
2018-03-07T13:25:30.403Z,9.00
2018-03-07T13:27:57.911Z,9.00
2018-03-07T13:30:26.427Z,8.90
2018-03-07T13:32:54.261Z,8.90
2018-03-07T13:35:22.059Z,9.00
2018-03-07T13:37:49.975Z,9.20
2018-03-07T13:40:18.324Z,8.90
2018-03-07T13:42:46.005Z,8.90
2018-03-07T13:45:13.724Z,8.80
2018-03-07T13:47:41.268Z,8.90
2018-03-07T13:50:09.579Z,9.40
2018-03-07T13:52:37.068Z,9.30
2018-03-07T13:55:04.591Z,9.50
2018-03-07T13:57:32.301Z,9.60
2018-03-07T13:59:59.911Z,9.50
2018-03-07T14:02:27.678Z,9.20
2018-03-07T14:04:55.657Z,9.20
2018-03-07T14:07:23.186Z,9.10
2018-03-07T14:09:50.870Z,9.10
2018-03-07T14:12:18.473Z,9.00
2018-03-07T14:14:46.011Z,9.00
2018-03-07T14:17:13.501Z,9.00
2018-03-07T14:19:41.518Z,8.90
2018-03-07T14:22:09.019Z,8.90
2018-03-07T14:24:36.516Z,8.70
2018-03-07T14:27:04.814Z,8.60
2018-03-07T14:29:32.334Z,8.50
2018-03-07T14:32:00.635Z,8.60
2018-03-07T14:34:28.210Z,8.60
2018-03-07T14:36:55.877Z,8.60
2018-03-07T14:39:23.554Z,8.50
2018-03-07T14:41:51.875Z,8.20
2018-03-07T14:44:19.548Z,8.20
2018-03-07T14:46:47.809Z,8.10
2018-03-07T14:49:16.070Z,8.10
2018-03-07T14:51:44.421Z,8.00
2018-03-07T14:54:11.940Z,8.10
2018-03-07T14:56:40.213Z,8.20
2018-03-07T14:59:08.465Z,8.10
2018-03-07T15:01:36.043Z,8.10
2018-03-07T15:04:04.368Z,8.10
2018-03-07T15:06:31.872Z,8.10
2018-03-07T15:08:59.426Z,8.20
2018-03-07T15:11:26.954Z,8.30
2018-03-07T15:13:55.352Z,8.60
2018-03-07T15:16:22.908Z,8.50
2018-03-07T15:18:51.353Z,8.50
2018-03-07T15:21:18.898Z,8.50
2018-03-07T15:23:47.378Z,8.30
2018-03-07T15:26:14.957Z,8.20
2018-03-07T15:28:42.445Z,8.10
2018-03-07T15:31:09.960Z,8.10
2018-03-07T15:33:37.467Z,8.20
2018-03-07T15:36:05.064Z,8.10
2018-03-07T15:38:33.476Z,7.90
2018-03-07T15:41:01.096Z,7.80
2018-03-07T15:43:29.451Z,7.50
2018-03-07T15:45:57.153Z,7.50
2018-03-07T15:48:25.625Z,7.30
2018-03-07T15:50:53.939Z,7.30
2018-03-07T15:53:22.241Z,7.00
2018-03-07T15:55:49.775Z,7.00
2018-03-07T15:58:17.337Z,7.00
2018-03-07T16:00:44.848Z,6.90
2018-03-07T16:03:12.335Z,6.90
2018-03-07T16:05:39.914Z,6.90
2018-03-07T16:08:07.405Z,6.80
2018-03-07T16:10:34.904Z,6.70
2018-03-07T16:13:03.215Z,6.70
2018-03-07T16:15:30.754Z,6.60
2018-03-07T16:17:58.345Z,6.60
2018-03-07T16:20:27.014Z,6.50
2018-03-07T16:22:55.701Z,6.50
2018-03-07T16:25:23.261Z,6.40
2018-03-07T16:27:50.773Z,6.30
2018-03-07T16:30:18.467Z,6.30
2018-03-07T16:32:45.996Z,6.30
2018-03-07T16:35:14.272Z,6.20
2018-03-07T16:37:41.756Z,6.10
2018-03-07T16:40:09.272Z,6.10
2018-03-07T16:42:36.956Z,6.10
2018-03-07T16:45:04.499Z,6.00
2018-03-07T16:47:32.194Z,6.00
2018-03-07T16:50:00.614Z,5.90
2018-03-07T16:52:28.353Z,5.90
2018-03-07T16:54:56.030Z,5.90
2018-03-07T16:57:23.685Z,5.80
2018-03-07T16:59:51.195Z,5.70
2018-03-07T17:02:18.857Z,5.70
2018-03-07T17:04:46.401Z,5.60
2018-03-07T17:07:14.661Z,5.50
2018-03-07T17:09:42.181Z,5.50
2018-03-07T17:12:10.571Z,5.40
2018-03-07T17:14:38.079Z,5.40
2018-03-07T17:17:05.561Z,5.40
2018-03-07T17:19:33.227Z,5.40
2018-03-07T17:22:00.833Z,5.40
2018-03-07T17:24:28.869Z,5.30
2018-03-07T17:26:57.367Z,5.30
2018-03-07T17:29:25.257Z,5.20
2018-03-07T17:31:52.810Z,5.20
2018-03-07T17:34:20.556Z,5.20
2018-03-07T17:36:48.331Z,5.10
2018-03-07T17:39:15.858Z,5.10
2018-03-07T17:41:43.360Z,5.00
2018-03-07T17:44:10.878Z,5.00
2018-03-07T17:46:39.127Z,4.90
2018-03-07T17:49:06.626Z,4.90
2018-03-07T17:51:34.949Z,4.90
2018-03-07T17:54:02.898Z,4.90
2018-03-07T17:56:30.540Z,4.90
2018-03-07T17:58:58.223Z,4.90
2018-03-07T18:01:26.394Z,4.90
2018-03-07T18:03:55.409Z,4.90
2018-03-07T18:06:22.952Z,4.90
2018-03-07T18:08:50.465Z,4.90
2018-03-07T18:11:17.985Z,4.90
2018-03-07T18:13:45.470Z,4.90
2018-03-07T18:16:12.953Z,4.90
2018-03-07T18:18:41.214Z,5.00
2018-03-07T18:21:08.700Z,5.00
2018-03-07T18:23:36.253Z,5.00
2018-03-07T18:26:04.560Z,5.10
2018-03-07T18:28:32.140Z,5.10
2018-03-07T18:31:00.423Z,5.10
2018-03-07T18:33:28.445Z,5.20
2018-03-07T18:35:56.950Z,5.20
2018-03-07T18:38:25.020Z,5.20
2018-03-07T18:40:52.546Z,5.20
2018-03-07T18:43:21.048Z,5.30
2018-03-07T18:45:48.829Z,5.30
2018-03-07T18:48:17.616Z,5.30
2018-03-07T18:50:45.161Z,5.30
2018-03-07T18:53:12.656Z,5.40
2018-03-07T18:55:40.170Z,5.40
2018-03-07T18:58:07.676Z,5.50
2018-03-07T19:00:35.175Z,5.50
2018-03-07T19:03:03.466Z,5.50
2018-03-07T19:05:31.785Z,5.50
2018-03-07T19:07:59.484Z,5.50
2018-03-07T19:10:28.215Z,5.50
2018-03-07T19:12:56.390Z,5.50
2018-03-07T19:15:24.466Z,5.50
2018-03-07T19:17:51.984Z,5.50
2018-03-07T19:20:20.281Z,5.50
2018-03-07T19:22:48.600Z,5.50
2018-03-07T19:25:16.141Z,5.50
2018-03-07T19:27:43.649Z,5.50
2018-03-07T19:30:11.185Z,5.50
2018-03-07T19:32:38.681Z,5.40
2018-03-07T19:35:07.030Z,5.40
2018-03-07T19:37:34.613Z,5.40
2018-03-07T19:40:03.552Z,5.30
2018-03-07T19:42:32.121Z,5.30
2018-03-07T19:44:59.796Z,5.30
2018-03-07T19:47:27.633Z,5.30
2018-03-07T19:49:55.531Z,5.20
2018-03-07T19:52:23.354Z,5.20
2018-03-07T19:54:50.971Z,5.10
2018-03-07T19:57:18.540Z,5.00
2018-03-07T19:59:46.053Z,5.00
2018-03-07T20:02:14.320Z,4.90
2018-03-07T20:04:41.847Z,4.90
2018-03-07T20:07:09.339Z,4.90
2018-03-07T20:09:37.625Z,4.80
2018-03-07T20:12:05.909Z,4.80
2018-03-07T20:14:33.689Z,4.70
2018-03-07T20:17:01.340Z,4.70
2018-03-07T20:19:29.423Z,4.70
2018-03-07T20:21:57.802Z,4.60
2018-03-07T20:24:26.798Z,4.60
2018-03-07T20:26:55.609Z,4.50
2018-03-07T20:29:26.219Z,4.50
2018-03-07T20:31:54.906Z,4.50
2018-03-07T20:34:25.308Z,4.50
2018-03-07T20:36:52.924Z,4.50
2018-03-07T20:39:20.493Z,4.50
2018-03-07T20:41:48.085Z,4.50
2018-03-07T20:44:16.373Z,4.50
2018-03-07T20:46:43.866Z,4.50
2018-03-07T20:49:11.379Z,4.50
2018-03-07T20:51:39.643Z,4.60
2018-03-07T20:54:08.026Z,4.70
2018-03-07T20:56:36.281Z,4.70
2018-03-07T20:59:03.855Z,4.70
2018-03-07T21:01:31.880Z,4.70
2018-03-07T21:06:33.594Z,4.70
2018-03-07T21:09:01.229Z,4.70
2018-03-07T21:11:32.351Z,4.70
2018-03-07T21:13:59.921Z,4.70
2018-03-07T21:16:27.789Z,4.70
2018-03-07T21:18:55.933Z,4.60
2018-03-07T21:21:24.024Z,4.60
2018-03-07T21:23:51.979Z,4.60
2018-03-07T21:26:19.508Z,4.50
2018-03-07T21:28:47.006Z,4.50
2018-03-07T21:31:14.504Z,4.50
2018-03-07T21:33:42.011Z,4.40
2018-03-07T21:36:09.502Z,4.40
2018-03-07T21:38:37.033Z,4.50
2018-03-07T21:41:04.713Z,4.60
2018-03-07T21:43:32.352Z,4.70
2018-03-07T21:46:00.150Z,4.70
2018-03-07T21:48:27.806Z,4.80
2018-03-07T21:50:55.587Z,4.80
2018-03-07T21:53:25.018Z,4.90
2018-03-07T21:55:53.352Z,4.90
2018-03-07T21:58:20.907Z,4.90
2018-03-07T22:00:48.431Z,4.90
2018-03-07T22:03:16.695Z,5.00
2018-03-07T22:05:44.220Z,4.90
2018-03-07T22:08:11.714Z,5.00
2018-03-07T22:10:39.210Z,5.00
2018-03-07T22:13:06.749Z,5.00
2018-03-07T22:15:35.059Z,5.00
2018-03-07T22:18:03.114Z,5.00
2018-03-07T22:20:30.707Z,5.00
2018-03-07T22:22:58.868Z,5.00
2018-03-07T22:25:26.616Z,5.00
2018-03-07T22:27:55.558Z,4.80
2018-03-07T22:30:24.412Z,4.90
2018-03-07T22:32:52.754Z,4.90
2018-03-07T22:35:20.291Z,4.90
2018-03-07T22:37:47.779Z,4.90
2018-03-07T22:40:16.061Z,4.90
2018-03-07T22:42:44.316Z,4.90
2018-03-07T22:45:12.589Z,4.90
2018-03-07T22:47:40.085Z,4.90
2018-03-07T22:50:07.600Z,4.90
2018-03-07T22:52:35.292Z,4.90
2018-03-07T22:55:02.896Z,4.90
2018-03-07T22:57:30.545Z,4.80
2018-03-07T22:59:58.364Z,4.80
2018-03-07T23:02:26.991Z,4.80
2018-03-07T23:04:54.862Z,4.80
2018-03-07T23:07:22.530Z,4.80
2018-03-07T23:09:50.958Z,4.80
2018-03-07T23:12:18.477Z,4.80
2018-03-07T23:14:46.040Z,4.80
2018-03-07T23:17:13.498Z,4.80
2018-03-07T23:19:41.009Z,4.90
2018-03-07T23:22:09.269Z,4.80
2018-03-07T23:24:36.820Z,4.80
2018-03-07T23:27:04.359Z,4.70
2018-03-07T23:29:32.233Z,4.80
2018-03-07T23:31:59.878Z,4.70
2018-03-07T23:34:28.274Z,4.80
2018-03-07T23:36:56.169Z,4.70
2018-03-07T23:39:23.817Z,4.80
2018-03-07T23:41:51.345Z,4.70
2018-03-07T23:44:18.838Z,4.70
2018-03-07T23:46:47.138Z,4.60
2018-03-07T23:49:15.393Z,4.60
2018-03-07T23:51:42.897Z,4.60
2018-03-07T23:54:10.392Z,4.60
2018-03-07T23:56:37.900Z,4.50
2018-03-07T23:59:05.525Z,4.40
